sensor_id;sensor_type;location;lat;lon;timestamp;P1;durP1;ratioP1;P2;durP2;ratioP2
11141;SDS011;5625;50.122;19.864;2023-02-15T00:02:08;17.83;;;15.93;;
11141;SDS011;5625;50.122;19.864;2023-02-15T00:04:37;18.87;;;15.77;;
11141;SDS011;5625;50.122;19.864;2023-02-15T00:07:16;18.70;;;16.37;;
11141;SDS011;5625;50.122;19.864;2023-02-15T00:09:46;19.43;;;17.03;;
11141;SDS011;5625;50.122;19.864;2023-02-15T00:12:14;20.40;;;17.73;;
11141;SDS011;5625;50.122;19.864;2023-02-15T00:14:43;20.30;;;16.33;;
11141;SDS011;5625;50.122;19.864;2023-02-15T00:17:11;19.93;;;17.33;;
11141;SDS011;5625;50.122;19.864;2023-02-15T00:19:39;21.73;;;18.47;;
11141;SDS011;5625;50.122;19.864;2023-02-15T00:22:07;19.87;;;17.20;;
11141;SDS011;5625;50.122;19.864;2023-02-15T00:24:37;19.27;;;17.27;;
11141;SDS011;5625;50.122;19.864;2023-02-15T00:27:05;21.93;;;17.23;;
11141;SDS011;5625;50.122;19.864;2023-02-15T00:29:32;19.07;;;16.83;;
11141;SDS011;5625;50.122;19.864;2023-02-15T00:32:00;20.40;;;17.63;;
11141;SDS011;5625;50.122;19.864;2023-02-15T00:34:28;18.70;;;16.07;;
11141;SDS011;5625;50.122;19.864;2023-02-15T00:36:56;19.30;;;17.30;;
11141;SDS011;5625;50.122;19.864;2023-02-15T00:39:24;19.00;;;16.40;;
11141;SDS011;5625;50.122;19.864;2023-02-15T00:41:54;19.37;;;16.60;;
11141;SDS011;5625;50.122;19.864;2023-02-15T00:44:22;18.77;;;16.77;;
11141;SDS011;5625;50.122;19.864;2023-02-15T00:46:50;18.77;;;16.40;;
11141;SDS011;5625;50.122;19.864;2023-02-15T00:49:18;21.07;;;18.23;;
11141;SDS011;5625;50.122;19.864;2023-02-15T00:51:46;20.47;;;17.57;;
11141;SDS011;5625;50.122;19.864;2023-02-15T00:54:14;20.83;;;17.40;;
11141;SDS011;5625;50.122;19.864;2023-02-15T00:56:42;18.47;;;16.13;;
11141;SDS011;5625;50.122;19.864;2023-02-15T00:59:12;21.40;;;17.83;;
11141;SDS011;5625;50.122;19.864;2023-02-15T01:01:40;20.90;;;18.13;;
11141;SDS011;5625;50.122;19.864;2023-02-15T01:04:08;19.17;;;16.67;;
11141;SDS011;5625;50.122;19.864;2023-02-15T01:06:36;18.53;;;16.47;;
11141;SDS011;5625;50.122;19.864;2023-02-15T01:09:04;21.17;;;16.83;;
11141;SDS011;5625;50.122;19.864;2023-02-15T01:11:34;20.47;;;18.03;;
11141;SDS011;5625;50.122;19.864;2023-02-15T01:14:02;20.57;;;17.53;;
11141;SDS011;5625;50.122;19.864;2023-02-15T01:16:32;22.10;;;18.33;;
11141;SDS011;5625;50.122;19.864;2023-02-15T01:19:00;21.33;;;18.17;;
11141;SDS011;5625;50.122;19.864;2023-02-15T01:21:29;20.27;;;17.60;;
11141;SDS011;5625;50.122;19.864;2023-02-15T01:24:00;21.47;;;18.17;;
11141;SDS011;5625;50.122;19.864;2023-02-15T01:26:29;20.83;;;18.13;;
11141;SDS011;5625;50.122;19.864;2023-02-15T01:28:57;21.90;;;18.60;;
11141;SDS011;5625;50.122;19.864;2023-02-15T01:31:25;22.17;;;18.93;;
11141;SDS011;5625;50.122;19.864;2023-02-15T01:33:54;24.80;;;18.93;;
11141;SDS011;5625;50.122;19.864;2023-02-15T01:36:22;21.90;;;19.00;;
11141;SDS011;5625;50.122;19.864;2023-02-15T01:38:50;25.93;;;20.87;;
11141;SDS011;5625;50.122;19.864;2023-02-15T01:41:18;22.17;;;19.77;;
11141;SDS011;5625;50.122;19.864;2023-02-15T01:43:53;22.97;;;19.23;;
11141;SDS011;5625;50.122;19.864;2023-02-15T01:46:24;25.13;;;19.47;;
11141;SDS011;5625;50.122;19.864;2023-02-15T01:49:00;23.23;;;19.60;;
11141;SDS011;5625;50.122;19.864;2023-02-15T01:51:35;27.87;;;21.33;;
11141;SDS011;5625;50.122;19.864;2023-02-15T01:54:06;24.73;;;20.60;;
11141;SDS011;5625;50.122;19.864;2023-02-15T01:56:38;26.10;;;20.90;;
11141;SDS011;5625;50.122;19.864;2023-02-15T01:59:09;25.53;;;20.63;;
11141;SDS011;5625;50.122;19.864;2023-02-15T02:01:41;25.80;;;19.63;;
11141;SDS011;5625;50.122;19.864;2023-02-15T02:04:13;26.00;;;21.23;;
11141;SDS011;5625;50.122;19.864;2023-02-15T02:06:45;23.97;;;20.37;;
11141;SDS011;5625;50.122;19.864;2023-02-15T02:09:15;28.33;;;21.57;;
11141;SDS011;5625;50.122;19.864;2023-02-15T02:11:44;25.70;;;20.63;;
11141;SDS011;5625;50.122;19.864;2023-02-15T02:14:14;24.60;;;20.53;;
11141;SDS011;5625;50.122;19.864;2023-02-15T02:16:46;25.40;;;21.70;;
11141;SDS011;5625;50.122;19.864;2023-02-15T02:19:38;25.03;;;21.00;;
11141;SDS011;5625;50.122;19.864;2023-02-15T02:28:19;25.37;;;20.10;;
11141;SDS011;5625;50.122;19.864;2023-02-15T02:31:13;25.23;;;20.67;;
11141;SDS011;5625;50.122;19.864;2023-02-15T02:34:03;24.13;;;20.80;;
11141;SDS011;5625;50.122;19.864;2023-02-15T02:36:38;26.37;;;21.37;;
11141;SDS011;5625;50.122;19.864;2023-02-15T02:39:19;26.03;;;20.60;;
11141;SDS011;5625;50.122;19.864;2023-02-15T02:41:55;25.37;;;20.73;;
11141;SDS011;5625;50.122;19.864;2023-02-15T02:44:29;25.00;;;20.67;;
11141;SDS011;5625;50.122;19.864;2023-02-15T02:47:03;25.40;;;21.07;;
11141;SDS011;5625;50.122;19.864;2023-02-15T02:49:37;23.20;;;19.50;;
11141;SDS011;5625;50.122;19.864;2023-02-15T02:52:31;25.73;;;20.63;;
11141;SDS011;5625;50.122;19.864;2023-02-15T02:55:05;25.50;;;20.43;;
11141;SDS011;5625;50.122;19.864;2023-02-15T02:57:36;23.40;;;20.33;;
11141;SDS011;5625;50.122;19.864;2023-02-15T03:00:07;25.30;;;20.67;;
11141;SDS011;5625;50.122;19.864;2023-02-15T03:02:37;24.43;;;19.60;;
11141;SDS011;5625;50.122;19.864;2023-02-15T03:05:13;23.87;;;19.80;;
11141;SDS011;5625;50.122;19.864;2023-02-15T03:07:48;26.37;;;21.27;;
11141;SDS011;5625;50.122;19.864;2023-02-15T03:10:20;25.70;;;21.13;;
11141;SDS011;5625;50.122;19.864;2023-02-15T03:12:50;25.73;;;21.57;;
11141;SDS011;5625;50.122;19.864;2023-02-15T03:15:20;26.00;;;22.23;;
11141;SDS011;5625;50.122;19.864;2023-02-15T03:17:51;27.30;;;21.77;;
11141;SDS011;5625;50.122;19.864;2023-02-15T03:20:26;24.77;;;21.10;;
11141;SDS011;5625;50.122;19.864;2023-02-15T03:22:59;26.63;;;20.57;;
11141;SDS011;5625;50.122;19.864;2023-02-15T03:25:31;28.07;;;21.37;;
11141;SDS011;5625;50.122;19.864;2023-02-15T03:28:02;23.10;;;20.33;;
11141;SDS011;5625;50.122;19.864;2023-02-15T03:30:34;23.67;;;20.07;;
11141;SDS011;5625;50.122;19.864;2023-02-15T03:33:04;22.40;;;19.33;;
11141;SDS011;5625;50.122;19.864;2023-02-15T03:35:33;26.40;;;21.90;;
11141;SDS011;5625;50.122;19.864;2023-02-15T03:38:07;28.60;;;22.33;;
11141;SDS011;5625;50.122;19.864;2023-02-15T03:40:38;28.40;;;20.97;;
11141;SDS011;5625;50.122;19.864;2023-02-15T03:43:29;31.10;;;21.97;;
11141;SDS011;5625;50.122;19.864;2023-02-15T03:46:04;28.30;;;22.90;;
11141;SDS011;5625;50.122;19.864;2023-02-15T03:48:37;26.53;;;21.93;;
11141;SDS011;5625;50.122;19.864;2023-02-15T03:51:08;27.43;;;22.07;;
11141;SDS011;5625;50.122;19.864;2023-02-15T03:53:58;26.10;;;20.67;;
11141;SDS011;5625;50.122;19.864;2023-02-15T03:56:28;27.47;;;22.40;;
11141;SDS011;5625;50.122;19.864;2023-02-15T03:58:56;29.10;;;22.83;;
11141;SDS011;5625;50.122;19.864;2023-02-15T04:01:44;30.57;;;24.00;;
11141;SDS011;5625;50.122;19.864;2023-02-15T04:04:27;30.70;;;24.07;;
11141;SDS011;5625;50.122;19.864;2023-02-15T04:07:00;30.77;;;22.07;;
11141;SDS011;5625;50.122;19.864;2023-02-15T04:09:31;29.97;;;23.77;;
11141;SDS011;5625;50.122;19.864;2023-02-15T04:12:17;31.00;;;23.20;;
11141;SDS011;5625;50.122;19.864;2023-02-15T04:14:45;31.80;;;23.73;;
11141;SDS011;5625;50.122;19.864;2023-02-15T04:17:31;32.37;;;24.73;;
11141;SDS011;5625;50.122;19.864;2023-02-15T04:19:59;32.03;;;24.77;;
11141;SDS011;5625;50.122;19.864;2023-02-15T04:22:45;32.93;;;24.93;;
11141;SDS011;5625;50.122;19.864;2023-02-15T04:25:32;30.87;;;24.43;;
11141;SDS011;5625;50.122;19.864;2023-02-15T04:28:00;32.87;;;24.37;;
11141;SDS011;5625;50.122;19.864;2023-02-15T04:30:28;31.43;;;24.13;;
11141;SDS011;5625;50.122;19.864;2023-02-15T04:32:56;33.37;;;25.23;;
11141;SDS011;5625;50.122;19.864;2023-02-15T04:35:24;32.37;;;25.00;;
11141;SDS011;5625;50.122;19.864;2023-02-15T04:37:52;33.67;;;26.27;;
11141;SDS011;5625;50.122;19.864;2023-02-15T04:40:22;32.40;;;25.40;;
11141;SDS011;5625;50.122;19.864;2023-02-15T04:42:51;33.47;;;26.57;;
11141;SDS011;5625;50.122;19.864;2023-02-15T04:45:19;36.00;;;26.20;;
11141;SDS011;5625;50.122;19.864;2023-02-15T04:47:47;39.03;;;29.27;;
11141;SDS011;5625;50.122;19.864;2023-02-15T04:50:15;40.20;;;28.87;;
11141;SDS011;5625;50.122;19.864;2023-02-15T04:52:43;39.60;;;29.50;;
11141;SDS011;5625;50.122;19.864;2023-02-15T04:55:11;39.40;;;29.50;;
11141;SDS011;5625;50.122;19.864;2023-02-15T04:57:40;40.10;;;29.97;;
11141;SDS011;5625;50.122;19.864;2023-02-15T05:00:10;40.87;;;30.27;;
11141;SDS011;5625;50.122;19.864;2023-02-15T05:02:38;38.63;;;27.07;;
11141;SDS011;5625;50.122;19.864;2023-02-15T05:05:07;33.93;;;25.70;;
11141;SDS011;5625;50.122;19.864;2023-02-15T05:07:35;35.80;;;25.07;;
11141;SDS011;5625;50.122;19.864;2023-02-15T05:10:06;32.60;;;24.87;;
11141;SDS011;5625;50.122;19.864;2023-02-15T05:12:35;33.03;;;25.00;;
11141;SDS011;5625;50.122;19.864;2023-02-15T05:15:03;30.77;;;25.07;;
11141;SDS011;5625;50.122;19.864;2023-02-15T05:17:33;34.43;;;25.87;;
11141;SDS011;5625;50.122;19.864;2023-02-15T05:20:01;36.13;;;26.07;;
11141;SDS011;5625;50.122;19.864;2023-02-15T05:22:29;33.40;;;27.10;;
11141;SDS011;5625;50.122;19.864;2023-02-15T05:24:57;31.87;;;24.60;;
11141;SDS011;5625;50.122;19.864;2023-02-15T05:27:43;29.67;;;23.03;;
11141;SDS011;5625;50.122;19.864;2023-02-15T05:30:30;30.37;;;23.70;;
11141;SDS011;5625;50.122;19.864;2023-02-15T05:33:00;31.33;;;23.40;;
11141;SDS011;5625;50.122;19.864;2023-02-15T05:35:28;30.33;;;22.50;;
11141;SDS011;5625;50.122;19.864;2023-02-15T05:37:59;29.37;;;22.43;;
11141;SDS011;5625;50.122;19.864;2023-02-15T05:40:27;29.47;;;23.03;;
11141;SDS011;5625;50.122;19.864;2023-02-15T05:42:55;30.23;;;23.80;;
11141;SDS011;5625;50.122;19.864;2023-02-15T05:45:23;30.37;;;23.97;;
11141;SDS011;5625;50.122;19.864;2023-02-15T05:47:51;33.40;;;24.90;;
11141;SDS011;5625;50.122;19.864;2023-02-15T05:50:21;32.63;;;25.53;;
11141;SDS011;5625;50.122;19.864;2023-02-15T05:52:49;30.90;;;24.67;;
11141;SDS011;5625;50.122;19.864;2023-02-15T05:55:17;32.93;;;24.77;;
11141;SDS011;5625;50.122;19.864;2023-02-15T05:57:46;32.20;;;24.90;;
11141;SDS011;5625;50.122;19.864;2023-02-15T06:00:17;34.27;;;25.87;;
11141;SDS011;5625;50.122;19.864;2023-02-15T06:02:45;28.67;;;24.00;;
11141;SDS011;5625;50.122;19.864;2023-02-15T06:05:13;31.67;;;24.37;;
11141;SDS011;5625;50.122;19.864;2023-02-15T06:07:44;29.43;;;22.90;;
11141;SDS011;5625;50.122;19.864;2023-02-15T06:10:12;30.67;;;24.33;;
11141;SDS011;5625;50.122;19.864;2023-02-15T06:12:43;30.50;;;25.03;;
11141;SDS011;5625;50.122;19.864;2023-02-15T06:15:11;32.40;;;24.33;;
11141;SDS011;5625;50.122;19.864;2023-02-15T06:17:40;31.57;;;24.83;;
11141;SDS011;5625;50.122;19.864;2023-02-15T06:20:14;31.83;;;24.63;;
11141;SDS011;5625;50.122;19.864;2023-02-15T06:22:43;33.47;;;24.30;;
11141;SDS011;5625;50.122;19.864;2023-02-15T06:25:11;32.53;;;25.10;;
11141;SDS011;5625;50.122;19.864;2023-02-15T06:27:40;31.87;;;24.57;;
11141;SDS011;5625;50.122;19.864;2023-02-15T06:30:09;32.90;;;24.73;;
11141;SDS011;5625;50.122;19.864;2023-02-15T06:32:38;34.77;;;25.13;;
11141;SDS011;5625;50.122;19.864;2023-02-15T06:35:07;30.70;;;25.17;;
11141;SDS011;5625;50.122;19.864;2023-02-15T06:37:35;37.27;;;26.33;;
11141;SDS011;5625;50.122;19.864;2023-02-15T06:40:05;34.30;;;26.53;;
11141;SDS011;5625;50.122;19.864;2023-02-15T06:42:34;33.50;;;26.40;;
11141;SDS011;5625;50.122;19.864;2023-02-15T06:45:02;36.33;;;26.67;;
11141;SDS011;5625;50.122;19.864;2023-02-15T06:47:33;37.40;;;28.47;;
11141;SDS011;5625;50.122;19.864;2023-02-15T06:50:02;42.37;;;28.53;;
11141;SDS011;5625;50.122;19.864;2023-02-15T06:52:30;51.03;;;30.60;;
11141;SDS011;5625;50.122;19.864;2023-02-15T06:54:58;47.80;;;29.67;;
11141;SDS011;5625;50.122;19.864;2023-02-15T06:57:28;45.67;;;31.63;;
11141;SDS011;5625;50.122;19.864;2023-02-15T06:59:56;42.80;;;30.03;;
11141;SDS011;5625;50.122;19.864;2023-02-15T07:02:24;39.20;;;29.70;;
11141;SDS011;5625;50.122;19.864;2023-02-15T07:04:52;44.03;;;29.90;;
11141;SDS011;5625;50.122;19.864;2023-02-15T07:07:23;39.23;;;27.97;;
11141;SDS011;5625;50.122;19.864;2023-02-15T07:09:51;37.73;;;27.47;;
11141;SDS011;5625;50.122;19.864;2023-02-15T07:12:22;38.90;;;28.03;;
11141;SDS011;5625;50.122;19.864;2023-02-15T07:15:09;42.77;;;28.47;;
11141;SDS011;5625;50.122;19.864;2023-02-15T07:17:39;38.73;;;28.47;;
11141;SDS011;5625;50.122;19.864;2023-02-15T07:20:08;40.00;;;28.37;;
11141;SDS011;5625;50.122;19.864;2023-02-15T07:22:38;37.73;;;27.20;;
11141;SDS011;5625;50.122;19.864;2023-02-15T07:25:07;45.43;;;28.93;;
11141;SDS011;5625;50.122;19.864;2023-02-15T07:27:37;55.27;;;28.80;;
11141;SDS011;5625;50.122;19.864;2023-02-15T07:30:06;39.00;;;25.77;;
11141;SDS011;5625;50.122;19.864;2023-02-15T07:32:39;37.70;;;25.30;;
11141;SDS011;5625;50.122;19.864;2023-02-15T07:35:30;37.27;;;26.90;;
11141;SDS011;5625;50.122;19.864;2023-02-15T07:37:58;35.77;;;27.43;;
11141;SDS011;5625;50.122;19.864;2023-02-15T07:40:26;36.03;;;26.60;;
11141;SDS011;5625;50.122;19.864;2023-02-15T07:42:58;34.83;;;25.00;;
11141;SDS011;5625;50.122;19.864;2023-02-15T07:45:27;40.37;;;26.37;;
11141;SDS011;5625;50.122;19.864;2023-02-15T07:47:55;34.70;;;26.03;;
11141;SDS011;5625;50.122;19.864;2023-02-15T07:50:23;35.30;;;25.73;;
11141;SDS011;5625;50.122;19.864;2023-02-15T07:52:51;36.90;;;27.23;;
11141;SDS011;5625;50.122;19.864;2023-02-15T07:55:21;38.33;;;26.80;;
11141;SDS011;5625;50.122;19.864;2023-02-15T07:57:51;43.73;;;28.03;;
11141;SDS011;5625;50.122;19.864;2023-02-15T08:00:20;46.47;;;29.60;;
11141;SDS011;5625;50.122;19.864;2023-02-15T08:02:53;44.60;;;29.73;;
11141;SDS011;5625;50.122;19.864;2023-02-15T08:05:41;40.60;;;28.63;;
11141;SDS011;5625;50.122;19.864;2023-02-15T08:08:14;41.73;;;29.10;;
11141;SDS011;5625;50.122;19.864;2023-02-15T08:11:00;40.50;;;29.67;;
11141;SDS011;5625;50.122;19.864;2023-02-15T08:13:47;37.63;;;27.00;;
11141;SDS011;5625;50.122;19.864;2023-02-15T08:16:23;37.57;;;27.27;;
11141;SDS011;5625;50.122;19.864;2023-02-15T08:18:54;43.43;;;29.23;;
11141;SDS011;5625;50.122;19.864;2023-02-15T08:21:23;36.43;;;27.43;;
11141;SDS011;5625;50.122;19.864;2023-02-15T08:23:53;41.57;;;28.77;;
11141;SDS011;5625;50.122;19.864;2023-02-15T08:26:21;37.50;;;27.57;;
11141;SDS011;5625;50.122;19.864;2023-02-15T08:28:49;37.57;;;28.27;;
11141;SDS011;5625;50.122;19.864;2023-02-15T08:31:18;39.80;;;28.43;;
11141;SDS011;5625;50.122;19.864;2023-02-15T08:33:47;40.77;;;29.53;;
11141;SDS011;5625;50.122;19.864;2023-02-15T08:36:19;39.50;;;28.17;;
11141;SDS011;5625;50.122;19.864;2023-02-15T08:38:49;40.73;;;28.10;;
11141;SDS011;5625;50.122;19.864;2023-02-15T08:41:18;37.20;;;27.77;;
11141;SDS011;5625;50.122;19.864;2023-02-15T08:43:49;36.03;;;27.17;;
11141;SDS011;5625;50.122;19.864;2023-02-15T08:46:20;36.70;;;27.50;;
11141;SDS011;5625;50.122;19.864;2023-02-15T08:48:49;36.97;;;27.43;;
11141;SDS011;5625;50.122;19.864;2023-02-15T08:51:21;39.40;;;28.83;;
11141;SDS011;5625;50.122;19.864;2023-02-15T08:53:51;37.47;;;27.50;;
11141;SDS011;5625;50.122;19.864;2023-02-15T08:56:24;41.27;;;27.47;;
11141;SDS011;5625;50.122;19.864;2023-02-15T08:58:53;37.00;;;28.40;;
11141;SDS011;5625;50.122;19.864;2023-02-15T09:01:24;39.00;;;27.60;;
11141;SDS011;5625;50.122;19.864;2023-02-15T09:03:57;37.50;;;27.83;;
11141;SDS011;5625;50.122;19.864;2023-02-15T09:06:29;37.63;;;27.40;;
11141;SDS011;5625;50.122;19.864;2023-02-15T09:08:57;37.03;;;26.60;;
11141;SDS011;5625;50.122;19.864;2023-02-15T09:11:26;41.87;;;28.37;;
11141;SDS011;5625;50.122;19.864;2023-02-15T09:13:56;41.00;;;29.10;;
11141;SDS011;5625;50.122;19.864;2023-02-15T09:16:26;38.83;;;28.60;;
11141;SDS011;5625;50.122;19.864;2023-02-15T09:18:55;37.57;;;27.63;;
11141;SDS011;5625;50.122;19.864;2023-02-15T09:21:39;36.40;;;27.07;;
11141;SDS011;5625;50.122;19.864;2023-02-15T09:24:12;37.87;;;28.57;;
11141;SDS011;5625;50.122;19.864;2023-02-15T09:26:43;32.60;;;25.33;;
11141;SDS011;5625;50.122;19.864;2023-02-15T09:29:13;33.37;;;24.67;;
11141;SDS011;5625;50.122;19.864;2023-02-15T09:31:42;31.93;;;23.73;;
11141;SDS011;5625;50.122;19.864;2023-02-15T09:34:13;27.57;;;23.07;;
11141;SDS011;5625;50.122;19.864;2023-02-15T09:36:43;30.87;;;23.33;;
11141;SDS011;5625;50.122;19.864;2023-02-15T09:39:14;29.47;;;22.50;;
11141;SDS011;5625;50.122;19.864;2023-02-15T09:44:59;25.73;;;21.80;;
11141;SDS011;5625;50.122;19.864;2023-02-15T09:50:44;24.77;;;21.27;;
11141;SDS011;5625;50.122;19.864;2023-02-15T09:53:29;26.27;;;20.93;;
11141;SDS011;5625;50.122;19.864;2023-02-15T09:56:13;29.07;;;21.50;;
11141;SDS011;5625;50.122;19.864;2023-02-15T09:58:48;27.37;;;22.57;;
11141;SDS011;5625;50.122;19.864;2023-02-15T10:01:28;26.67;;;21.97;;
11141;SDS011;5625;50.122;19.864;2023-02-15T10:04:14;28.60;;;22.53;;
11141;SDS011;5625;50.122;19.864;2023-02-15T10:06:55;28.70;;;23.20;;
11141;SDS011;5625;50.122;19.864;2023-02-15T10:09:46;27.97;;;23.40;;
11141;SDS011;5625;50.122;19.864;2023-02-15T10:12:34;27.97;;;23.40;;
11141;SDS011;5625;50.122;19.864;2023-02-15T10:15:34;26.30;;;22.13;;
11141;SDS011;5625;50.122;19.864;2023-02-15T10:18:22;27.10;;;23.07;;
11141;SDS011;5625;50.122;19.864;2023-02-15T10:21:03;27.27;;;23.10;;
11141;SDS011;5625;50.122;19.864;2023-02-15T10:26:36;26.23;;;21.70;;
11141;SDS011;5625;50.122;19.864;2023-02-15T10:29:14;24.67;;;21.70;;
11141;SDS011;5625;50.122;19.864;2023-02-15T10:31:50;26.40;;;21.90;;
11141;SDS011;5625;50.122;19.864;2023-02-15T10:34:24;23.60;;;20.53;;
11141;SDS011;5625;50.122;19.864;2023-02-15T10:37:01;24.00;;;20.87;;
11141;SDS011;5625;50.122;19.864;2023-02-15T10:39:44;25.00;;;21.23;;
11141;SDS011;5625;50.122;19.864;2023-02-15T10:42:23;25.50;;;21.43;;
11141;SDS011;5625;50.122;19.864;2023-02-15T10:45:04;25.60;;;22.20;;
11141;SDS011;5625;50.122;19.864;2023-02-15T10:47:44;25.93;;;22.27;;
11141;SDS011;5625;50.122;19.864;2023-02-15T10:50:39;26.87;;;22.73;;
11141;SDS011;5625;50.122;19.864;2023-02-15T10:53:19;27.33;;;22.93;;
11141;SDS011;5625;50.122;19.864;2023-02-15T10:56:12;27.57;;;23.33;;
11141;SDS011;5625;50.122;19.864;2023-02-15T10:58:52;28.17;;;23.77;;
11141;SDS011;5625;50.122;19.864;2023-02-15T11:01:32;26.80;;;23.10;;
11141;SDS011;5625;50.122;19.864;2023-02-15T11:04:09;32.77;;;25.37;;
11141;SDS011;5625;50.122;19.864;2023-02-15T11:07:02;31.13;;;24.67;;
11141;SDS011;5625;50.122;19.864;2023-02-15T11:09:35;29.63;;;23.80;;
11141;SDS011;5625;50.122;19.864;2023-02-15T11:12:08;29.37;;;24.13;;
11141;SDS011;5625;50.122;19.864;2023-02-15T11:14:43;29.13;;;23.70;;
11141;SDS011;5625;50.122;19.864;2023-02-15T11:17:16;32.80;;;24.50;;
11141;SDS011;5625;50.122;19.864;2023-02-15T11:19:50;29.77;;;25.27;;
11141;SDS011;5625;50.122;19.864;2023-02-15T11:22:28;31.40;;;24.83;;
11141;SDS011;5625;50.122;19.864;2023-02-15T11:24:59;30.70;;;25.27;;
11141;SDS011;5625;50.122;19.864;2023-02-15T11:27:30;30.03;;;24.40;;
11141;SDS011;5625;50.122;19.864;2023-02-15T11:30:02;30.13;;;24.33;;
11141;SDS011;5625;50.122;19.864;2023-02-15T11:32:37;32.77;;;24.67;;
11141;SDS011;5625;50.122;19.864;2023-02-15T11:35:10;29.40;;;23.47;;
11141;SDS011;5625;50.122;19.864;2023-02-15T11:37:48;33.63;;;25.07;;
11141;SDS011;5625;50.122;19.864;2023-02-15T11:40:19;30.00;;;24.00;;
11141;SDS011;5625;50.122;19.864;2023-02-15T11:42:51;33.63;;;25.23;;
11141;SDS011;5625;50.122;19.864;2023-02-15T11:45:27;31.53;;;25.13;;
11141;SDS011;5625;50.122;19.864;2023-02-15T11:47:57;33.10;;;25.27;;
11141;SDS011;5625;50.122;19.864;2023-02-15T11:50:27;34.63;;;25.10;;
11141;SDS011;5625;50.122;19.864;2023-02-15T11:52:59;31.20;;;24.00;;
11141;SDS011;5625;50.122;19.864;2023-02-15T11:55:29;32.73;;;23.87;;
11141;SDS011;5625;50.122;19.864;2023-02-15T11:58:00;33.30;;;25.37;;
11141;SDS011;5625;50.122;19.864;2023-02-15T12:00:36;32.30;;;26.43;;
11141;SDS011;5625;50.122;19.864;2023-02-15T12:03:11;33.70;;;24.83;;
11141;SDS011;5625;50.122;19.864;2023-02-15T12:05:44;32.07;;;25.07;;
11141;SDS011;5625;50.122;19.864;2023-02-15T12:08:16;32.37;;;25.97;;
11141;SDS011;5625;50.122;19.864;2023-02-15T12:11:00;34.00;;;24.93;;
11141;SDS011;5625;50.122;19.864;2023-02-15T12:13:33;35.90;;;25.13;;
11141;SDS011;5625;50.122;19.864;2023-02-15T12:16:06;32.33;;;25.73;;
11141;SDS011;5625;50.122;19.864;2023-02-15T12:18:40;36.90;;;25.73;;
11141;SDS011;5625;50.122;19.864;2023-02-15T12:21:11;33.50;;;25.37;;
11141;SDS011;5625;50.122;19.864;2023-02-15T12:23:43;31.73;;;25.47;;
11141;SDS011;5625;50.122;19.864;2023-02-15T12:26:15;33.03;;;24.23;;
11141;SDS011;5625;50.122;19.864;2023-02-15T12:28:51;31.83;;;25.07;;
11141;SDS011;5625;50.122;19.864;2023-02-15T12:31:26;37.23;;;25.83;;
11141;SDS011;5625;50.122;19.864;2023-02-15T12:33:59;32.13;;;25.57;;
11141;SDS011;5625;50.122;19.864;2023-02-15T12:36:32;32.70;;;23.57;;
11141;SDS011;5625;50.122;19.864;2023-02-15T12:39:21;33.60;;;25.70;;
11141;SDS011;5625;50.122;19.864;2023-02-15T12:41:57;35.03;;;25.37;;
11141;SDS011;5625;50.122;19.864;2023-02-15T12:44:28;34.00;;;23.47;;
11141;SDS011;5625;50.122;19.864;2023-02-15T12:47:00;35.00;;;24.87;;
11141;SDS011;5625;50.122;19.864;2023-02-15T12:49:30;34.67;;;26.93;;
11141;SDS011;5625;50.122;19.864;2023-02-15T12:52:01;36.97;;;25.73;;
11141;SDS011;5625;50.122;19.864;2023-02-15T12:54:39;35.40;;;25.00;;
11141;SDS011;5625;50.122;19.864;2023-02-15T12:59:58;31.70;;;24.63;;
11141;SDS011;5625;50.122;19.864;2023-02-15T13:02:30;32.57;;;25.17;;
11141;SDS011;5625;50.122;19.864;2023-02-15T13:05:04;36.37;;;25.57;;
11141;SDS011;5625;50.122;19.864;2023-02-15T13:07:53;35.57;;;26.13;;
11141;SDS011;5625;50.122;19.864;2023-02-15T13:10:25;37.57;;;26.13;;
11141;SDS011;5625;50.122;19.864;2023-02-15T13:12:56;34.40;;;25.83;;
11141;SDS011;5625;50.122;19.864;2023-02-15T13:15:25;34.73;;;25.23;;
11141;SDS011;5625;50.122;19.864;2023-02-15T13:17:59;36.37;;;25.13;;
11141;SDS011;5625;50.122;19.864;2023-02-15T13:20:30;33.03;;;24.80;;
11141;SDS011;5625;50.122;19.864;2023-02-15T13:23:03;34.67;;;25.50;;
11141;SDS011;5625;50.122;19.864;2023-02-15T13:25:44;35.67;;;26.80;;
11141;SDS011;5625;50.122;19.864;2023-02-15T13:28:19;33.90;;;25.33;;
11141;SDS011;5625;50.122;19.864;2023-02-15T13:30:49;31.50;;;25.07;;
11141;SDS011;5625;50.122;19.864;2023-02-15T13:33:21;35.43;;;24.73;;
11141;SDS011;5625;50.122;19.864;2023-02-15T13:35:56;33.47;;;24.63;;
11141;SDS011;5625;50.122;19.864;2023-02-15T13:38:45;32.27;;;24.00;;
11141;SDS011;5625;50.122;19.864;2023-02-15T13:41:17;34.20;;;25.80;;
11141;SDS011;5625;50.122;19.864;2023-02-15T13:43:52;33.73;;;25.17;;
11141;SDS011;5625;50.122;19.864;2023-02-15T13:46:32;35.33;;;25.13;;
11141;SDS011;5625;50.122;19.864;2023-02-15T13:49:21;33.40;;;24.80;;
11141;SDS011;5625;50.122;19.864;2023-02-15T13:52:01;34.37;;;25.83;;
11141;SDS011;5625;50.122;19.864;2023-02-15T13:54:37;32.93;;;25.60;;
11141;SDS011;5625;50.122;19.864;2023-02-15T13:57:24;33.27;;;24.97;;
11141;SDS011;5625;50.122;19.864;2023-02-15T14:00:03;35.90;;;26.37;;
11141;SDS011;5625;50.122;19.864;2023-02-15T14:02:56;33.33;;;25.00;;
11141;SDS011;5625;50.122;19.864;2023-02-15T14:08:53;33.33;;;25.73;;
11141;SDS011;5625;50.122;19.864;2023-02-15T14:11:35;34.67;;;25.30;;
11141;SDS011;5625;50.122;19.864;2023-02-15T14:14:23;33.43;;;25.00;;
11141;SDS011;5625;50.122;19.864;2023-02-15T14:17:09;33.67;;;23.90;;
11141;SDS011;5625;50.122;19.864;2023-02-15T14:19:50;33.97;;;24.93;;
11141;SDS011;5625;50.122;19.864;2023-02-15T14:22:25;33.80;;;26.07;;
11141;SDS011;5625;50.122;19.864;2023-02-15T14:25:07;34.00;;;24.90;;
11141;SDS011;5625;50.122;19.864;2023-02-15T14:27:50;34.80;;;25.50;;
11141;SDS011;5625;50.122;19.864;2023-02-15T14:30:24;35.07;;;27.20;;
11141;SDS011;5625;50.122;19.864;2023-02-15T14:32:57;36.80;;;26.60;;
11141;SDS011;5625;50.122;19.864;2023-02-15T14:35:32;33.50;;;25.53;;
11141;SDS011;5625;50.122;19.864;2023-02-15T14:38:04;33.23;;;25.67;;
11141;SDS011;5625;50.122;19.864;2023-02-15T14:40:42;35.63;;;26.77;;
11141;SDS011;5625;50.122;19.864;2023-02-15T14:43:33;35.87;;;25.73;;
11141;SDS011;5625;50.122;19.864;2023-02-15T14:46:18;33.20;;;25.97;;
11141;SDS011;5625;50.122;19.864;2023-02-15T14:48:56;33.27;;;24.53;;
11141;SDS011;5625;50.122;19.864;2023-02-15T14:57:27;35.10;;;26.30;;
11141;SDS011;5625;50.122;19.864;2023-02-15T15:00:02;33.20;;;25.07;;
11141;SDS011;5625;50.122;19.864;2023-02-15T15:02:56;32.47;;;25.17;;
11141;SDS011;5625;50.122;19.864;2023-02-15T15:05:27;37.63;;;26.67;;
11141;SDS011;5625;50.122;19.864;2023-02-15T15:08:03;34.17;;;26.30;;
11141;SDS011;5625;50.122;19.864;2023-02-15T15:10:35;33.47;;;26.27;;
11141;SDS011;5625;50.122;19.864;2023-02-15T15:16:31;34.57;;;27.17;;
11141;SDS011;5625;50.122;19.864;2023-02-15T15:22:35;36.17;;;27.33;;
11141;SDS011;5625;50.122;19.864;2023-02-15T15:25:04;37.33;;;27.30;;
11141;SDS011;5625;50.122;19.864;2023-02-15T15:27:46;35.93;;;26.97;;
11141;SDS011;5625;50.122;19.864;2023-02-15T15:43:36;38.67;;;26.77;;
11141;SDS011;5625;50.122;19.864;2023-02-15T15:46:34;39.33;;;28.50;;